首页
METAR-TAF:

METAR-TAF

机场 :

Dalton Municipal Airport

多尔顿, 喬治亞, 美国

纬度: 34-43-18N, 经度: 084-52-09W, 海拔: 216米

当前天气观测

该预报发布于23分钟前的00:35 UTC
静风
温度 19°C
湿度 78%
气压 1015 hPa
能見度: 16.1公里
阴天层高于2700英尺

METAR: KDNN 160035Z AUTO 00000KT 10SM OVC027 19/15 A2996 RMK AO2

时间: 20:58 (00:58 UTC)


TAF: 丢失

超过4000个机场的气象观测和天气预报(METAR&TAF报告)。

可查询的气象台以黄色和红色小点在地图上表示。

将鼠标移到小点上方,可查看气象台名称。

然后点击查看天气观测和预报。

如需切换地图:点击带黑十字的绿色按钮放大地图;点击带横线的绿色按钮缩小地图;或者点击绿色箭头查看邻近地区的地图。


METAR-TAF: